Time;durP1;ratioP1;P1;durP2;ratioP2;P2;SDS_P1;SDS_P2;PMS_P1;PMS_P2;Temp;Humidity;BMP_temperature;BMP_pressure;BME280_temperature;BME280_humidity;BME280_pressure;Samples;Min_cycle;Max_cycle;Signal;HPM_P1;HPM_P2
2022/08/17 00:01:22;;;;;;;6.22;4.97;;;;;;;;;;5071559;28;20703;-87
2022/08/17 00:03:50;;;;;;;7.75;5.13;;;;;;;;;;5071903;28;20232;-88
2022/08/17 00:06:19;;;;;;;6.07;4.68;;;;;;;;;;5076456;28;20257;-88
2022/08/17 00:08:47;;;;;;;5.28;4.78;;;;;;;;;;5078105;28;20225;-88
2022/08/17 00:11:15;;;;;;;7.30;4.55;;;;;;;;;;5071481;28;20431;-87
2022/08/17 00:13:45;;;;;;;5.63;4.97;;;;;;;;;;5071721;28;20631;-88
2022/08/17 00:16:14;;;;;;;8.60;5.13;;;;;;;;;;5071441;28;20712;-88
2022/08/17 00:18:41;;;;;;;5.68;4.68;;;;;;;;;;5072029;28;20202;-88
2022/08/17 00:21:10;;;;;;;9.52;4.90;;;;;;;;;;5071290;28;20712;-88
2022/08/17 00:23:39;;;;;;;8.40;5.10;;;;;;;;;;5071815;28;20229;-88
2022/08/17 00:26:06;;;;;;;6.28;5.25;;;;;;;;;;5071032;28;20237;-88
2022/08/17 00:28:33;;;;;;;7.72;5.93;;;;;;;;;;5071539;28;20236;-88
2022/08/17 00:31:01;;;;;;;10.30;5.75;;;;;;;;;;5071355;28;20233;-87
2022/08/17 00:33:30;;;;;;;6.82;5.32;;;;;;;;;;5071801;28;20248;-88
2022/08/17 00:35:57;;;;;;;8.65;4.95;;;;;;;;;;5071542;28;20660;-88
2022/08/17 00:38:25;;;;;;;5.60;5.07;;;;;;;;;;5074384;28;20247;-88
2022/08/17 00:40:54;;;;;;;7.30;5.40;;;;;;;;;;5074949;28;20724;-88
2022/08/17 00:43:22;;;;;;;5.93;5.32;;;;;;;;;;5075237;28;20233;-88
2022/08/17 00:45:50;;;;;;;5.88;5.03;;;;;;;;;;5075093;28;20233;-88
2022/08/17 00:48:18;;;;;;;6.43;5.72;;;;;;;;;;5075180;28;20204;-88
2022/08/17 00:50:49;;;;;;;6.30;5.38;;;;;;;;;;5074775;28;20237;-88
2022/08/17 00:53:16;;;;;;;7.82;5.35;;;;;;;;;;5075264;28;20229;-87
2022/08/17 00:55:43;;;;;;;5.75;5.25;;;;;;;;;;5074995;28;20244;-88
2022/08/17 00:58:10;;;;;;;10.80;5.20;;;;;;;;;;5075221;28;20223;-87
2022/08/17 01:00:39;;;;;;;5.55;5.05;;;;;;;;;;5074452;28;20233;-87
2022/08/17 01:03:07;;;;;;;5.32;4.82;;;;;;;;;;5075001;28;20229;-88
2022/08/17 01:05:37;;;;;;;5.47;4.97;;;;;;;;;;5073987;28;20237;-88
2022/08/17 01:08:06;;;;;;;5.95;5.35;;;;;;;;;;5074767;28;20244;-88
2022/08/17 01:10:36;;;;;;;6.25;5.40;;;;;;;;;;5074468;28;20233;-88
2022/08/17 01:13:03;;;;;;;6.97;5.32;;;;;;;;;;5074990;28;20236;-88
2022/08/17 01:15:30;;;;;;;6.10;5.60;;;;;;;;;;5074506;28;20233;-87
2022/08/17 01:17:57;;;;;;;7.82;5.45;;;;;;;;;;5074712;28;20209;-87
2022/08/17 01:20:24;;;;;;;5.70;5.13;;;;;;;;;;5074540;28;20228;-88
2022/08/17 01:22:53;;;;;;;6.45;5.85;;;;;;;;;;5074829;28;20257;-88
2022/08/17 01:25:21;;;;;;;6.05;5.45;;;;;;;;;;5054297;28;20602;-88
2022/08/17 01:27:48;;;;;;;5.60;5.18;;;;;;;;;;5054662;28;20734;-88
2022/08/17 01:30:16;;;;;;;7.80;5.50;;;;;;;;;;5054167;28;20241;-88
2022/08/17 01:32:44;;;;;;;5.28;4.85;;;;;;;;;;5054524;28;20233;-88
2022/08/17 01:35:12;;;;;;;9.52;5.13;;;;;;;;;;5053932;28;20269;-88
2022/08/17 01:37:41;;;;;;;8.75;5.45;;;;;;;;;;5054335;28;20204;-88
2022/08/17 01:40:15;;;;;;;9.35;5.93;;;;;;;;;;5053810;28;20241;-88
2022/08/17 01:42:45;;;;;;;10.32;6.05;;;;;;;;;;5054101;28;20233;-88
2022/08/17 01:45:13;;;;;;;6.70;6.03;;;;;;;;;;5054686;28;20249;-88
2022/08/17 01:47:41;;;;;;;8.23;6.10;;;;;;;;;;5054437;28;20213;-89
2022/08/17 01:50:09;;;;;;;7.63;6.10;;;;;;;;;;5053938;28;20287;-88
2022/08/17 01:52:36;;;;;;;7.00;6.13;;;;;;;;;;5054407;28;20233;-88
2022/08/17 01:55:05;;;;;;;9.88;5.70;;;;;;;;;;5053866;28;20210;-89
2022/08/17 01:57:33;;;;;;;10.35;5.60;;;;;;;;;;5054217;28;20217;-88
2022/08/17 02:00:00;;;;;;;9.65;6.05;;;;;;;;;;5054720;28;20203;-88
2022/08/17 02:02:27;;;;;;;7.28;5.95;;;;;;;;;;5055458;28;20222;-88
2022/08/17 02:04:55;;;;;;;6.13;5.53;;;;;;;;;;5057469;28;20267;-89
2022/08/17 02:07:22;;;;;;;7.72;6.20;;;;;;;;;;5079297;28;20190;-89
2022/08/17 02:09:49;;;;;;;8.38;6.15;;;;;;;;;;5077075;28;20234;-88
2022/08/17 02:12:16;;;;;;;10.43;5.68;;;;;;;;;;5078376;28;20194;-90
2022/08/17 02:14:45;;;;;;;9.10;6.00;;;;;;;;;;5079376;28;20182;-89
2022/08/17 02:17:12;;;;;;;7.95;6.05;;;;;;;;;;5078946;28;20202;-88
2022/08/17 02:19:39;;;;;;;10.70;6.10;;;;;;;;;;5079096;28;20263;-90
2022/08/17 02:22:07;;;;;;;7.90;6.00;;;;;;;;;;5078323;28;20202;-88
2022/08/17 02:24:36;;;;;;;9.73;6.23;;;;;;;;;;5078832;28;20213;-89
2022/08/17 02:27:03;;;;;;;8.03;6.30;;;;;;;;;;5078416;28;20245;-89
2022/08/17 02:29:31;;;;;;;6.80;6.10;;;;;;;;;;5075600;28;20230;-89
2022/08/17 02:32:00;;;;;;;8.10;5.77;;;;;;;;;;5076840;28;20693;-89
2022/08/17 02:34:28;;;;;;;12.27;5.63;;;;;;;;;;5074076;28;20212;-88
2022/08/17 02:36:55;;;;;;;8.20;6.00;;;;;;;;;;5073402;28;20244;-88
2022/08/17 02:39:22;;;;;;;8.17;6.03;;;;;;;;;;5073628;28;20704;-88
2022/08/17 02:41:49;;;;;;;8.98;6.55;;;;;;;;;;5073226;28;20237;-88
2022/08/17 02:44:17;;;;;;;8.67;5.93;;;;;;;;;;5074085;28;20240;-89
2022/08/17 02:46:44;;;;;;;8.20;6.53;;;;;;;;;;5073416;28;20301;-88
2022/08/17 02:49:12;;;;;;;9.83;6.60;;;;;;;;;;5073578;28;20229;-88
2022/08/17 02:51:39;;;;;;;6.97;6.27;;;;;;;;;;5072523;28;20241;-88
2022/08/17 02:54:06;;;;;;;7.32;6.35;;;;;;;;;;5072834;28;20708;-88
2022/08/17 02:56:33;;;;;;;8.53;6.23;;;;;;;;;;5072573;28;20232;-88
2022/08/17 02:59:00;;;;;;;7.40;5.67;;;;;;;;;;5073148;28;20220;-88
2022/08/17 03:01:27;;;;;;;8.20;6.53;;;;;;;;;;5071486;28;20244;-88
2022/08/17 03:03:55;;;;;;;9.43;6.00;;;;;;;;;;5072962;28;20249;-88
2022/08/17 03:06:24;;;;;;;6.83;6.07;;;;;;;;;;5072050;28;20290;-88
2022/08/17 03:08:53;;;;;;;8.40;5.90;;;;;;;;;;5072481;28;20616;-88
2022/08/17 03:11:20;;;;;;;10.47;6.83;;;;;;;;;;5071924;28;20229;-88
2022/08/17 03:13:47;;;;;;;9.70;5.80;;;;;;;;;;5072519;28;20232;-86
2022/08/17 03:16:14;;;;;;;8.10;6.57;;;;;;;;;;5072387;28;20233;-88
2022/08/17 03:18:41;;;;;;;10.63;6.37;;;;;;;;;;5072809;28;20205;-88
2022/08/17 03:21:08;;;;;;;10.83;6.50;;;;;;;;;;5072503;28;20256;-88
2022/08/17 03:23:39;;;;;;;8.00;6.77;;;;;;;;;;5072375;28;20229;-88
2022/08/17 03:26:07;;;;;;;6.97;6.37;;;;;;;;;;5071716;28;20708;-88
2022/08/17 03:28:34;;;;;;;7.00;5.93;;;;;;;;;;5072519;28;20323;-88
2022/08/17 03:31:01;;;;;;;7.07;6.33;;;;;;;;;;5071832;28;20740;-88
2022/08/17 03:33:29;;;;;;;12.53;6.87;;;;;;;;;;5076439;28;20221;-88
2022/08/17 03:35:56;;;;;;;17.57;6.93;;;;;;;;;;5071686;28;20233;-88
2022/08/17 03:38:23;;;;;;;10.30;5.90;;;;;;;;;;5072353;28;20209;-87
2022/08/17 03:40:52;;;;;;;10.17;5.97;;;;;;;;;;5071648;28;20248;-88
2022/08/17 03:43:20;;;;;;;7.03;5.80;;;;;;;;;;5071979;28;20264;-88
2022/08/17 03:57:02;;;;;;;7.37;5.70;;;;;;;;;;5071764;28;20231;-88
2022/08/17 03:59:29;;;;;;;8.03;5.93;;;;;;;;;;5072170;28;20190;-88
2022/08/17 04:01:58;;;;;;;6.47;5.50;;;;;;;;;;5071340;28;20244;-88
2022/08/17 04:04:25;;;;;;;6.57;5.80;;;;;;;;;;5071656;28;20205;-87
2022/08/17 04:06:52;;;;;;;6.30;5.80;;;;;;;;;;5071307;28;20295;-87
2022/08/17 04:09:19;;;;;;;7.00;6.10;;;;;;;;;;5072371;28;20217;-87
2022/08/17 04:11:46;;;;;;;6.43;5.83;;;;;;;;;;5071593;28;20257;-87
2022/08/17 04:14:15;;;;;;;7.67;6.03;;;;;;;;;;5075993;28;20711;-88
2022/08/17 04:16:42;;;;;;;10.93;6.00;;;;;;;;;;5075350;28;20696;-88
2022/08/17 04:19:09;;;;;;;13.33;6.50;;;;;;;;;;5076293;28;20212;-87
2022/08/17 04:21:36;;;;;;;7.07;6.37;;;;;;;;;;5075385;28;20229;-87
2022/08/17 04:24:03;;;;;;;7.10;6.40;;;;;;;;;;5075766;28;20235;-88
2022/08/17 04:26:31;;;;;;;6.63;5.93;;;;;;;;;;5075106;28;20256;-87
2022/08/17 04:28:58;;;;;;;6.13;5.53;;;;;;;;;;5075776;28;20614;-87
2022/08/17 04:31:27;;;;;;;7.93;5.50;;;;;;;;;;5074902;28;20685;-87
2022/08/17 04:33:54;;;;;;;6.07;5.47;;;;;;;;;;5075337;28;20324;-88
2022/08/17 04:36:21;;;;;;;10.87;5.97;;;;;;;;;;5075031;28;20278;-88
2022/08/17 04:38:48;;;;;;;8.67;6.10;;;;;;;;;;5074276;28;20296;-87
2022/08/17 04:44:03;;;;;;;6.83;6.13;;;;;;;;;;5075463;28;20228;-89
2022/08/17 04:46:32;;;;;;;8.73;6.93;;;;;;;;;;5077484;28;20354;-90
2022/08/17 04:49:00;;;;;;;8.27;6.73;;;;;;;;;;5075495;28;20595;-89
2022/08/17 04:51:28;;;;;;;7.30;6.60;;;;;;;;;;5074720;28;20241;-86
2022/08/17 04:53:56;;;;;;;10.67;7.27;;;;;;;;;;5075278;28;20584;-87
2022/08/17 04:56:24;;;;;;;10.20;7.07;;;;;;;;;;5077288;28;20240;-87
2022/08/17 04:58:52;;;;;;;12.30;7.13;;;;;;;;;;5077750;28;20239;-88
2022/08/17 05:01:20;;;;;;;7.70;7.00;;;;;;;;;;5078000;28;20245;-86
2022/08/17 05:03:49;;;;;;;9.77;6.80;;;;;;;;;;5076456;28;20221;-87
2022/08/17 05:06:16;;;;;;;13.63;7.03;;;;;;;;;;5075566;28;20237;-87
2022/08/17 05:08:43;;;;;;;9.63;6.93;;;;;;;;;;5075745;28;20189;-87
2022/08/17 05:11:10;;;;;;;9.57;7.10;;;;;;;;;;5075264;28;20320;-87
2022/08/17 05:13:37;;;;;;;7.60;6.67;;;;;;;;;;5082475;28;20228;-87
2022/08/17 05:16:05;;;;;;;9.30;7.23;;;;;;;;;;5083203;28;20252;-87
2022/08/17 05:18:32;;;;;;;10.47;7.67;;;;;;;;;;5088028;28;20205;-87
2022/08/17 05:21:01;;;;;;;10.10;7.37;;;;;;;;;;5081532;28;20237;-87
2022/08/17 05:23:28;;;;;;;12.40;7.90;;;;;;;;;;5082743;28;20229;-88
2022/08/17 05:25:57;;;;;;;8.90;7.63;;;;;;;;;;5088203;28;20252;-88
2022/08/17 05:28:25;;;;;;;10.17;7.80;;;;;;;;;;5079923;28;20209;-89
2022/08/17 05:30:53;;;;;;;9.77;8.03;;;;;;;;;;5074693;28;20937;-88
2022/08/17 05:33:21;;;;;;;11.07;7.60;;;;;;;;;;5074745;28;20225;-88
2022/08/17 05:35:50;;;;;;;10.87;7.60;;;;;;;;;;5074544;28;20233;-88
2022/08/17 05:38:19;;;;;;;8.70;7.37;;;;;;;;;;5074959;28;20194;-89
2022/08/17 05:40:46;;;;;;;10.57;7.80;;;;;;;;;;5073894;28;20236;-87
2022/08/17 05:43:15;;;;;;;10.10;7.30;;;;;;;;;;5080988;28;20233;-88
2022/08/17 05:45:43;;;;;;;8.00;6.97;;;;;;;;;;5090302;22;20236;-84
2022/08/17 05:48:10;;;;;;;10.27;7.43;;;;;;;;;;5054931;28;20202;-84
2022/08/17 05:50:43;;;;;;;9.93;7.83;;;;;;;;;;5055019;28;20249;-84
2022/08/17 05:53:13;;;;;;;8.70;7.80;;;;;;;;;;5056112;28;20622;-84
2022/08/17 05:55:46;;;;;;;8.83;7.90;;;;;;;;;;5038290;28;20239;-84
2022/08/17 05:58:19;;;;;;;9.20;8.33;;;;;;;;;;5022407;28;20195;-83
2022/08/17 06:00:52;;;;;;;10.87;8.40;;;;;;;;;;5036022;28;20325;-83
2022/08/17 06:03:26;;;;;;;12.30;8.70;;;;;;;;;;5036666;28;20195;-83
2022/08/17 06:06:01;;;;;;;11.57;8.87;;;;;;;;;;5035565;28;20241;-83
2022/08/17 06:08:32;;;;;;;9.83;8.83;;;;;;;;;;5036077;28;20233;-83
2022/08/17 06:11:03;;;;;;;10.13;9.13;;;;;;;;;;5035445;28;20230;-83
2022/08/17 06:13:35;;;;;;;11.77;8.90;;;;;;;;;;5036678;28;20191;-83
2022/08/17 06:16:04;;;;;;;12.17;8.57;;;;;;;;;;5036047;28;20243;-83
2022/08/17 06:18:36;;;;;;;13.87;8.10;;;;;;;;;;5036276;28;20689;-83
2022/08/17 06:21:05;;;;;;;11.13;8.45;;;;;;;;;;5049919;28;20227;-83
2022/08/17 06:23:34;;;;;;;9.27;7.63;;;;;;;;;;5038592;28;20210;-83
2022/08/17 06:26:05;;;;;;;9.38;8.15;;;;;;;;;;5036464;28;20238;-83
2022/08/17 06:28:36;;;;;;;9.85;8.05;;;;;;;;;;5036083;28;20195;-83
2022/08/17 06:31:06;;;;;;;9.18;7.32;;;;;;;;;;5035490;28;20262;-84
2022/08/17 06:33:35;;;;;;;12.75;7.75;;;;;;;;;;5035373;28;20183;-84
2022/08/17 06:36:07;;;;;;;9.15;8.02;;;;;;;;;;5034545;28;20242;-83
2022/08/17 06:38:40;;;;;;;9.20;8.30;;;;;;;;;;5035928;28;20230;-83
2022/08/17 06:41:15;;;;;;;8.50;6.93;;;;;;;;;;5035484;28;20235;-83
2022/08/17 06:43:46;;;;;;;7.72;7.03;;;;;;;;;;5035820;28;20222;-83
2022/08/17 06:46:17;;;;;;;8.40;7.47;;;;;;;;;;5036125;28;20796;-83
2022/08/17 06:48:46;;;;;;;6.80;6.10;;;;;;;;;;5031288;28;20207;-83
2022/08/17 06:51:17;;;;;;;10.80;7.05;;;;;;;;;;5040782;28;20239;-83
2022/08/17 06:53:47;;;;;;;11.95;7.10;;;;;;;;;;5038486;28;20202;-83
2022/08/17 06:56:22;;;;;;;8.95;6.70;;;;;;;;;;5035727;28;20596;-83
2022/08/17 06:58:49;;;;;;;10.02;6.85;;;;;;;;;;5038732;28;20206;-82
2022/08/17 07:01:19;;;;;;;7.10;6.50;;;;;;;;;;5036775;28;20257;-84
2022/08/17 07:03:53;;;;;;;9.88;7.18;;;;;;;;;;5034328;28;20592;-83
2022/08/17 07:06:21;;;;;;;8.40;7.60;;;;;;;;;;5033146;28;20246;-83
2022/08/17 07:08:58;;;;;;;8.23;7.20;;;;;;;;;;5034400;28;20210;-83
2022/08/17 07:11:31;;;;;;;8.27;7.13;;;;;;;;;;5034559;28;20234;-82
2022/08/17 07:14:03;;;;;;;11.40;7.28;;;;;;;;;;5034522;28;20221;-83
2022/08/17 07:16:33;;;;;;;11.02;6.80;;;;;;;;;;5032905;28;20281;-82
2022/08/17 07:19:00;;;;;;;8.30;7.03;;;;;;;;;;5033756;28;20897;-82
2022/08/17 07:21:37;;;;;;;8.48;6.95;;;;;;;;;;5032682;28;20237;-83
2022/08/17 07:24:10;;;;;;;7.95;7.15;;;;;;;;;;5033718;28;20319;-83
2022/08/17 07:26:38;;;;;;;8.15;6.63;;;;;;;;;;5033276;28;20274;-83
2022/08/17 07:29:05;;;;;;;8.57;7.03;;;;;;;;;;5033985;28;20245;-83
2022/08/17 07:31:33;;;;;;;10.02;6.35;;;;;;;;;;5033072;28;20660;-83
2022/08/17 07:34:02;;;;;;;10.18;6.82;;;;;;;;;;5033407;28;20210;-83
2022/08/17 07:36:32;;;;;;;8.02;6.60;;;;;;;;;;5032662;28;20234;-83
2022/08/17 07:39:00;;;;;;;11.27;6.95;;;;;;;;;;5032650;28;20652;-84
2022/08/17 07:41:28;;;;;;;15.77;6.10;;;;;;;;;;5031963;28;20238;-83
2022/08/17 07:43:57;;;;;;;7.72;6.32;;;;;;;;;;5032625;28;20220;-84
2022/08/17 07:49:21;;;;;;;10.45;5.45;;;;;;;;;;5036763;28;20201;-81
2022/08/17 07:51:59;;;;;;;5.90;5.00;;;;;;;;;;5021024;28;20239;-82
2022/08/17 07:54:29;;;;;;;6.57;5.28;;;;;;;;;;5015540;28;20234;-83
2022/08/17 07:56:57;;;;;;;17.98;6.50;;;;;;;;;;5017320;28;20234;-81
2022/08/17 07:59:26;;;;;;;9.15;5.15;;;;;;;;;;5013442;28;20246;-84
2022/08/17 08:02:03;;;;;;;7.22;5.65;;;;;;;;;;5013903;28;20721;-83
2022/08/17 08:04:33;;;;;;;6.60;4.95;;;;;;;;;;5013577;28;20231;-83
2022/08/17 08:07:02;;;;;;;7.35;5.20;;;;;;;;;;5012699;28;20239;-83
2022/08/17 08:09:31;;;;;;;8.65;5.50;;;;;;;;;;5013431;28;20222;-83
2022/08/17 08:11:59;;;;;;;8.13;5.68;;;;;;;;;;5012578;28;20300;-83
2022/08/17 08:14:29;;;;;;;7.22;4.82;;;;;;;;;;5014046;28;20227;-83
2022/08/17 08:16:58;;;;;;;13.38;6.78;;;;;;;;;;5016168;28;20239;-83
2022/08/17 08:19:26;;;;;;;7.93;5.38;;;;;;;;;;5013871;28;20873;-83
2022/08/17 08:21:58;;;;;;;8.32;5.68;;;;;;;;;;5012969;28;20242;-83
2022/08/17 08:24:40;;;;;;;11.48;5.80;;;;;;;;;;5014899;28;20231;-83
2022/08/17 08:27:12;;;;;;;9.45;5.50;;;;;;;;;;5026147;28;20709;-84
2022/08/17 08:29:46;;;;;;;9.80;5.25;;;;;;;;;;5033690;28;20187;-84
2022/08/17 08:32:17;;;;;;;10.68;5.20;;;;;;;;;;5064923;28;20244;-85
2022/08/17 08:34:46;;;;;;;8.15;4.88;;;;;;;;;;5055079;28;20228;-84
2022/08/17 08:37:18;;;;;;;11.00;5.30;;;;;;;;;;5053378;28;20210;-84
2022/08/17 08:39:51;;;;;;;5.57;5.05;;;;;;;;;;5055366;28;20205;-84
2022/08/17 08:42:22;;;;;;;6.63;5.30;;;;;;;;;;5067600;28;20208;-84
2022/08/17 08:44:55;;;;;;;5.20;4.70;;;;;;;;;;5065673;28;20265;-84
2022/08/17 08:47:27;;;;;;;7.95;5.05;;;;;;;;;;5061358;28;20658;-84
2022/08/17 08:50:00;;;;;;;7.60;4.90;;;;;;;;;;5052565;28;20202;-84
2022/08/17 08:52:40;;;;;;;9.73;4.70;;;;;;;;;;5053424;28;20206;-84
2022/08/17 08:55:11;;;;;;;8.73;5.18;;;;;;;;;;5052475;28;20629;-83
2022/08/17 08:57:40;;;;;;;13.98;5.32;;;;;;;;;;5052783;28;20705;-83
2022/08/17 09:00:13;;;;;;;7.72;4.57;;;;;;;;;;5056874;28;20245;-84
2022/08/17 09:03:02;;;;;;;11.15;5.47;;;;;;;;;;5057449;28;20711;-84
2022/08/17 09:05:33;;;;;;;6.60;4.20;;;;;;;;;;5032224;28;20238;-84
2022/08/17 09:08:04;;;;;;;5.32;4.82;;;;;;;;;;5057733;28;20206;-84
2022/08/17 09:10:33;;;;;;;9.20;5.05;;;;;;;;;;5057704;28;20597;-84
2022/08/17 09:13:05;;;;;;;6.78;4.32;;;;;;;;;;5056581;28;20265;-83
2022/08/17 09:15:38;;;;;;;5.13;4.72;;;;;;;;;;5056002;28;20313;-85
2022/08/17 09:18:09;;;;;;;5.90;4.50;;;;;;;;;;5056723;28;20191;-84
2022/08/17 09:20:39;;;;;;;4.95;4.50;;;;;;;;;;5055744;28;20316;-83
2022/08/17 09:23:09;;;;;;;5.70;4.07;;;;;;;;;;5056585;28;20199;-84
2022/08/17 09:25:43;;;;;;;5.45;4.30;;;;;;;;;;5055907;28;20238;-84
2022/08/17 09:28:15;;;;;;;7.10;4.72;;;;;;;;;;5056769;28;20292;-84
2022/08/17 09:30:47;;;;;;;5.28;4.57;;;;;;;;;;5055284;28;20252;-85
2022/08/17 09:33:16;;;;;;;4.85;4.30;;;;;;;;;;5056060;28;20186;-84
2022/08/17 09:35:45;;;;;;;4.53;4.20;;;;;;;;;;5055344;28;20233;-84
2022/08/17 09:38:20;;;;;;;6.20;4.80;;;;;;;;;;5056250;28;20206;-84
2022/08/17 09:40:49;;;;;;;5.70;4.53;;;;;;;;;;5054890;28;20229;-84
2022/08/17 09:43:20;;;;;;;5.32;4.20;;;;;;;;;;5056595;28;20259;-84
2022/08/17 09:45:51;;;;;;;5.93;4.50;;;;;;;;;;5056090;28;20241;-84
2022/08/17 09:48:21;;;;;;;5.88;4.63;;;;;;;;;;5056219;28;20214;-84
2022/08/17 09:50:51;;;;;;;7.80;4.10;;;;;;;;;;5054969;28;20249;-84
2022/08/17 09:53:18;;;;;;;6.68;4.15;;;;;;;;;;5056366;28;20841;-84
2022/08/17 09:55:54;;;;;;;11.15;4.43;;;;;;;;;;5055977;28;20311;-83
2022/08/17 09:58:25;;;;;;;5.13;4.50;;;;;;;;;;5056093;28;20213;-84
2022/08/17 10:00:57;;;;;;;11.85;4.72;;;;;;;;;;5055682;28;20241;-84
2022/08/17 10:03:29;;;;;;;5.35;4.60;;;;;;;;;;5056203;28;20210;-84
2022/08/17 10:06:01;;;;;;;6.40;4.68;;;;;;;;;;5055371;28;20248;-84
2022/08/17 10:08:34;;;;;;;14.07;4.18;;;;;;;;;;5055908;28;20206;-84
2022/08/17 10:11:09;;;;;;;9.50;4.75;;;;;;;;;;5054624;28;20237;-85
2022/08/17 10:13:55;;;;;;;6.53;4.22;;;;;;;;;;5055170;28;20198;-84
2022/08/17 10:16:26;;;;;;;5.47;4.40;;;;;;;;;;5055489;28;20237;-85
2022/08/17 10:19:01;;;;;;;4.32;3.95;;;;;;;;;;5055287;28;20208;-84
2022/08/17 10:27:02;;;;;;;6.60;4.20;;;;;;;;;;5054947;28;20249;-84
2022/08/17 10:29:32;;;;;;;8.73;3.55;;;;;;;;;;5055450;28;20214;-84
2022/08/17 10:32:03;;;;;;;4.78;4.38;;;;;;;;;;5054523;28;20340;-84
2022/08/17 10:34:40;;;;;;;5.13;3.78;;;;;;;;;;5055218;28;20287;-84
2022/08/17 10:37:12;;;;;;;6.45;4.13;;;;;;;;;;5054967;28;20561;-84
2022/08/17 10:39:44;;;;;;;5.35;3.90;;;;;;;;;;5055128;28;20198;-84
2022/08/17 10:42:17;;;;;;;4.50;4.10;;;;;;;;;;5054579;28;20218;-84
2022/08/17 10:44:47;;;;;;;5.07;3.85;;;;;;;;;;5061832;28;20237;-83
2022/08/17 10:47:16;;;;;;;6.30;3.92;;;;;;;;;;5056589;28;20194;-83
2022/08/17 10:49:46;;;;;;;6.20;3.90;;;;;;;;;;5055515;28;20198;-84
2022/08/17 10:52:37;;;;;;;4.18;3.78;;;;;;;;;;5055329;28;20248;-85
2022/08/17 10:55:12;;;;;;;5.57;3.95;;;;;;;;;;5038974;28;20237;-84
2022/08/17 10:57:40;;;;;;;4.93;3.38;;;;;;;;;;5051016;28;20222;-85
2022/08/17 11:00:11;;;;;;;5.65;4.32;;;;;;;;;;5060492;28;20240;-84
2022/08/17 11:02:48;;;;;;;8.40;4.05;;;;;;;;;;5053882;28;20194;-85
2022/08/17 11:05:22;;;;;;;6.03;4.35;;;;;;;;;;5046057;28;20237;-85
2022/08/17 11:08:00;;;;;;;4.55;3.60;;;;;;;;;;5062436;28;20213;-86
2022/08/17 11:10:42;;;;;;;4.82;3.80;;;;;;;;;;5052871;28;20240;-85
2022/08/17 11:13:17;;;;;;;4.53;3.63;;;;;;;;;;5051239;28;20653;-85
2022/08/17 11:15:54;;;;;;;6.03;3.95;;;;;;;;;;5052600;28;20649;-83
2022/08/17 11:18:27;;;;;;;6.53;3.80;;;;;;;;;;5052466;28;20202;-84
2022/08/17 11:21:14;;;;;;;4.80;3.47;;;;;;;;;;5052262;28;20236;-83
2022/08/17 11:23:49;;;;;;;5.80;4.18;;;;;;;;;;5049770;28;20201;-84
2022/08/17 11:26:24;;;;;;;7.10;5.28;;;;;;;;;;5032750;28;20234;-85
2022/08/17 11:28:53;;;;;;;7.68;6.50;;;;;;;;;;5033736;28;20194;-84
2022/08/17 11:31:28;;;;;;;6.18;5.55;;;;;;;;;;5033495;28;20317;-84
2022/08/17 11:34:00;;;;;;;5.72;5.20;;;;;;;;;;5043951;28;20287;-85
2022/08/17 11:36:44;;;;;;;6.22;5.10;;;;;;;;;;5053160;28;20245;-85
2022/08/17 11:39:20;;;;;;;5.25;4.80;;;;;;;;;;5051644;28;20229;-84
2022/08/17 11:41:50;;;;;;;5.78;5.28;;;;;;;;;;5052453;28;20244;-84
2022/08/17 11:44:27;;;;;;;6.47;4.93;;;;;;;;;;5078548;22;20234;-83
2022/08/17 11:52:42;;;;;;;7.57;5.22;;;;;;;;;;5052100;28;20360;-81
2022/08/17 11:55:10;;;;;;;6.82;5.22;;;;;;;;;;5042238;28;20242;-81
2022/08/17 11:58:01;;;;;;;10.48;5.78;;;;;;;;;;5037216;28;20210;-82
2022/08/17 12:00:56;;;;;;;5.85;4.75;;;;;;;;;;5023391;28;20313;-80
2022/08/17 12:03:42;;;;;;;7.65;4.80;;;;;;;;;;5018708;28;20214;-79
2022/08/17 12:06:18;;;;;;;5.78;4.68;;;;;;;;;;5022302;28;20584;-80
2022/08/17 12:08:52;;;;;;;7.00;3.97;;;;;;;;;;5012289;28;20815;-80
2022/08/17 12:11:21;;;;;;;7.07;4.07;;;;;;;;;;5027203;28;20238;-80
2022/08/17 12:13:49;;;;;;;5.43;4.35;;;;;;;;;;5048560;28;20233;-82
2022/08/17 12:16:17;;;;;;;6.97;4.43;;;;;;;;;;5026061;28;20235;-82
2022/08/17 12:18:49;;;;;;;7.60;4.50;;;;;;;;;;5012587;28;20807;-83
2022/08/17 12:21:23;;;;;;;5.55;4.45;;;;;;;;;;5033129;28;20253;-83
2022/08/17 12:23:56;;;;;;;7.38;3.50;;;;;;;;;;5044048;28;20205;-83
2022/08/17 12:26:25;;;;;;;4.10;3.05;;;;;;;;;;5017838;28;20258;-83
2022/08/17 12:28:56;;;;;;;3.80;3.47;;;;;;;;;;5013270;28;20222;-83
2022/08/17 12:31:26;;;;;;;4.35;3.30;;;;;;;;;;5015086;28;20257;-84
2022/08/17 12:33:53;;;;;;;4.45;3.17;;;;;;;;;;5022524;28;20234;-83
2022/08/17 12:36:24;;;;;;;5.32;3.60;;;;;;;;;;5015939;28;20309;-82
2022/08/17 12:38:52;;;;;;;4.53;3.00;;;;;;;;;;5014753;28;20242;-83
2022/08/17 12:41:30;;;;;;;3.45;2.97;;;;;;;;;;5015156;28;20238;-83
2022/08/17 12:44:00;;;;;;;4.03;2.78;;;;;;;;;;5015150;28;20214;-81
2022/08/17 12:46:27;;;;;;;4.80;3.35;;;;;;;;;;5014740;28;20274;-84
2022/08/17 12:48:56;;;;;;;6.95;2.85;;;;;;;;;;5018813;28;20203;-82
2022/08/17 12:51:25;;;;;;;3.80;3.40;;;;;;;;;;5032717;28;20294;-83
2022/08/17 12:53:53;;;;;;;3.80;3.38;;;;;;;;;;5045753;28;20232;-85
2022/08/17 12:56:20;;;;;;;3.38;3.08;;;;;;;;;;5050716;28;20234;-83
2022/08/17 12:58:52;;;;;;;4.22;3.35;;;;;;;;;;5031034;28;20203;-84
2022/08/17 13:01:19;;;;;;;4.45;3.83;;;;;;;;;;5044693;28;20579;-85
2022/08/17 13:03:48;;;;;;;4.63;3.33;;;;;;;;;;5054124;28;20202;-84
2022/08/17 13:06:27;;;;;;;3.45;3.00;;;;;;;;;;5053636;28;20266;-84
2022/08/17 13:08:55;;;;;;;10.25;3.50;;;;;;;;;;5053889;28;20669;-84
2022/08/17 13:11:24;;;;;;;3.47;3.15;;;;;;;;;;5050886;28;20229;-84
2022/08/17 13:13:53;;;;;;;4.65;3.45;;;;;;;;;;5033703;28;20226;-84
2022/08/17 13:16:21;;;;;;;3.80;3.10;;;;;;;;;;5032905;28;20667;-82
2022/08/17 13:18:50;;;;;;;9.70;3.72;;;;;;;;;;5033390;28;20215;-83
2022/08/17 13:21:25;;;;;;;3.58;3.28;;;;;;;;;;5032709;28;20237;-83
2022/08/17 13:24:01;;;;;;;3.95;3.63;;;;;;;;;;5033704;28;20670;-85
2022/08/17 13:26:31;;;;;;;4.72;3.40;;;;;;;;;;5034522;28;20234;-85
2022/08/17 13:28:58;;;;;;;4.82;3.30;;;;;;;;;;5028521;28;20604;-85
2022/08/17 13:31:34;;;;;;;4.07;3.47;;;;;;;;;;5031547;28;20241;-84
2022/08/17 13:34:18;;;;;;;5.65;2.83;;;;;;;;;;5032576;28;20226;-83
2022/08/17 13:36:46;;;;;;;3.85;3.15;;;;;;;;;;5028558;28;20227;-83
2022/08/17 13:39:17;;;;;;;3.60;3.28;;;;;;;;;;5028854;28;20670;-85
2022/08/17 13:41:45;;;;;;;3.53;3.22;;;;;;;;;;5024334;28;20227;-84
2022/08/17 13:44:30;;;;;;;3.85;3.10;;;;;;;;;;5013622;28;20539;-85
2022/08/17 13:46:58;;;;;;;4.82;3.17;;;;;;;;;;5013178;28;20277;-82
2022/08/17 13:49:25;;;;;;;3.65;3.30;;;;;;;;;;5013886;28;20350;-82
2022/08/17 13:51:53;;;;;;;3.47;3.13;;;;;;;;;;5012666;28;20269;-84
2022/08/17 13:54:24;;;;;;;4.80;3.85;;;;;;;;;;5013766;28;20234;-83
2022/08/17 13:56:58;;;;;;;8.77;3.38;;;;;;;;;;5034433;28;20223;-82
2022/08/17 13:59:27;;;;;;;3.33;3.13;;;;;;;;;;5037088;28;20226;-84
2022/08/17 14:01:55;;;;;;;3.92;3.15;;;;;;;;;;5027683;28;20250;-84
2022/08/17 14:04:24;;;;;;;4.32;3.45;;;;;;;;;;5022768;28;20203;-84
2022/08/17 14:06:54;;;;;;;3.60;2.92;;;;;;;;;;5018518;28;20227;-83
2022/08/17 14:09:23;;;;;;;3.92;3.10;;;;;;;;;;5021463;28;20203;-83
2022/08/17 14:11:51;;;;;;;3.55;3.25;;;;;;;;;;5027329;28;20234;-82
2022/08/17 14:14:19;;;;;;;5.93;3.65;;;;;;;;;;5030554;28;20227;-82
2022/08/17 14:16:46;;;;;;;3.97;3.53;;;;;;;;;;5038146;28;20253;-83
2022/08/17 14:19:14;;;;;;;4.32;3.63;;;;;;;;;;5033834;28;20202;-84
2022/08/17 14:21:42;;;;;;;5.00;3.60;;;;;;;;;;5031642;28;20234;-83
2022/08/17 14:24:10;;;;;;;3.30;3.00;;;;;;;;;;5032853;28;20207;-83
2022/08/17 14:26:38;;;;;;;3.35;3.10;;;;;;;;;;5032523;28;20234;-84
2022/08/17 14:29:06;;;;;;;4.40;3.30;;;;;;;;;;5032880;28;20211;-83
2022/08/17 14:31:33;;;;;;;3.22;2.92;;;;;;;;;;5012482;28;20241;-84
2022/08/17 14:34:00;;;;;;;3.63;3.25;;;;;;;;;;5028496;28;20639;-85
2022/08/17 14:36:27;;;;;;;3.70;3.38;;;;;;;;;;5051840;28;20245;-85
2022/08/17 14:38:55;;;;;;;3.55;3.20;;;;;;;;;;5053164;28;20209;-85
2022/08/17 14:41:22;;;;;;;3.88;3.45;;;;;;;;;;5052127;28;20243;-85
2022/08/17 14:43:51;;;;;;;5.03;3.28;;;;;;;;;;5052448;28;20675;-84
2022/08/17 14:46:18;;;;;;;3.30;3.03;;;;;;;;;;5051897;28;20237;-85
2022/08/17 14:48:45;;;;;;;4.65;3.15;;;;;;;;;;5052161;28;20252;-85
2022/08/17 14:51:13;;;;;;;3.58;3.10;;;;;;;;;;5052072;28;20612;-86
2022/08/17 14:53:41;;;;;;;4.40;3.20;;;;;;;;;;5052270;28;20217;-83
2022/08/17 14:56:09;;;;;;;3.97;3.08;;;;;;;;;;5050798;28;20258;-83
2022/08/17 14:58:36;;;;;;;3.42;3.13;;;;;;;;;;5052126;28;20206;-83
2022/08/17 15:01:06;;;;;;;3.47;3.28;;;;;;;;;;5051428;28;20740;-84
2022/08/17 15:03:33;;;;;;;3.67;3.38;;;;;;;;;;5052674;28;20210;-84
2022/08/17 15:06:01;;;;;;;3.63;3.20;;;;;;;;;;5048454;28;20250;-85
2022/08/17 15:08:28;;;;;;;6.40;3.13;;;;;;;;;;5032410;28;20466;-84
2022/08/17 15:10:55;;;;;;;4.35;3.55;;;;;;;;;;5031526;28;20235;-83
2022/08/17 15:13:24;;;;;;;4.38;3.38;;;;;;;;;;5032212;28;20226;-85
2022/08/17 15:15:52;;;;;;;3.38;3.15;;;;;;;;;;5031367;28;20235;-83
2022/08/17 15:18:20;;;;;;;5.35;3.08;;;;;;;;;;5036482;28;20214;-83
2022/08/17 15:20:48;;;;;;;3.50;3.17;;;;;;;;;;5045457;28;20238;-84
2022/08/17 15:23:17;;;;;;;3.40;3.10;;;;;;;;;;5046098;28;20202;-84
2022/08/17 15:25:45;;;;;;;4.03;3.20;;;;;;;;;;5039584;28;20246;-84